Aidamar — ICSJ — position and weather

sailwx.info

Track history (hours):
 
Tides and Currents Weather Stations Pressure Air Temp Water Temp Dewpoint Dewpoint Depression Visibility Wind Speed Wind Dir Waves Ship Positions

Aidamar

Last reported at 2014-Jul-31 17:33 UTC. Time now 2014-Aug-01 05:46 UTC.
Position N 59°19' E 018°09'.

Length 253 m; draft 7.3 m.

Type: Passenger vessel. MMSI: 247312900.

Date/timePositionNaut miles runAvg speedWind from/ knotsBaromVisibWave heightAir tempDewpointWater temp
2014-Jul-31 17:33N 59°19' E 018°09'1 1.2
2014-Jul-31 16:30N 59°19' E 018°06'0 0.0
2014-Jul-31 15:33N 59°19' E 018°06'0 0.0
2014-Jul-31 14:32N 59°19' E 018°06'0 0.0
2014-Jul-31 13:29N 59°19' E 018°06'0 0.0
2014-Jul-31 12:17N 59°19' E 018°06'0 0.0
2014-Jul-31 11:23N 59°19' E 018°06'0 0.0
2014-Jul-31 10:33N 59°19' E 018°06'0 0.0
2014-Jul-31 09:33N 59°19' E 018°06'0 0.0
2014-Jul-31 08:29N 59°19' E 018°06'0 0.0
2014-Jul-31 07:33N 59°19' E 018°06'7 6.9
2014-Jul-31 06:33N 59°23' E 018°17'9011.1
2014-Jul-30 22:30N 59°33' E 021°13'1515.9
2014-Jul-30 21:33N 59°30' E 021°42'1615.5
2014-Jul-30 20:33N 59°29' E 022°13'1615.5
2014-Jul-30 19:31N 59°31' E 022°44'1515.6
2014-Jul-30 18:32N 59°36' E 023°13'1715.3
2014-Jul-30 17:24N 59°41' E 023°46'3415.3
2014-Jul-30 15:10N 59°57' E 024°46'912.9
2014-Jul-30 14:26N 60°05' E 024°54'4 1.1
2014-Jul-30 11:04N 60°09' E 024°55'0 0.0
2014-Jul-30 07:05N 60°09' E 024°55'0 0.0
2014-Jul-30 06:17N 60°09' E 024°55'0 0.5
2014-Jul-30 05:33N 60°09' E 024°55'6 6.2
2014-Jul-30 04:32N 60°02' E 024°54'5012.3
2014-Jul-30 00:29N 60°01' E 026°34'1715.1
2014-Jul-29 23:21N 60°01' E 027°08'8913.0
2014-Jul-29 16:34N 59°56' E 030°05'3 0.3
2014-Jul-29 06:26N 59°57' E 030°12'0 0.0
2014-Jul-29 05:26N 59°57' E 030°12'0 0.0
2014-Jul-29 03:28N 59°57' E 030°11'4711.4
2014-Jul-28 23:20N 60°02' E 028°38'1414.6
2014-Jul-28 22:21N 60°08' E 028°12'1315.5
2014-Jul-28 21:30N 60°10' E 027°46'1515.5
2014-Jul-28 20:34N 60°03' E 027°21'1514.8
2014-Jul-28 19:33N 59°59' E 026°52'1515.1
2014-Jul-28 18:32N 59°57' E 026°22'1515.6
2014-Jul-28 17:33N 59°52' E 025°53'1615.7
2014-Jul-28 16:34N 59°48' E 025°23'1615.8
2014-Jul-28 15:34N 59°43' E 024°53'16 1.6
2014-Jul-28 05:33N 59°27' E 024°46'7 6.6
2014-Jul-28 04:33N 59°30' E 024°34'1414.1
2014-Jul-28 03:32N 59°30' E 024°06'1515.7
2014-Jul-28 02:33N 59°30' E 023°35'1615.7
2014-Jul-28 01:33N 59°29' E 023°05'1615.8
2014-Jul-28 00:33N 59°24' E 022°35'2411.1
2014-Jul-27 22:23N 59°10' E 021°57'1314.4
2014-Jul-27 21:30N 59°01' E 021°39'1715.6
2014-Jul-27 20:23N 58°46' E 021°21'3216.0
2014-Jul-27 18:23N 58°20' E 020°47'9315.1
2014-Jul-27 12:12N 57°05' E 019°01'1015.0
2014-Jul-27 11:33N 56°58' E 018°50'1614.9
2014-Jul-27 10:30N 56°47' E 018°28'6515.1
2014-Jul-27 06:13N 56°07' E 016°56'4415.4
2014-Jul-27 03:23N 55°46' E 015°49'1815.5
2014-Jul-27 02:15N 55°37' E 015°21'1115.6
2014-Jul-27 01:33N 55°33' E 015°04'1615.4
2014-Jul-27 00:32N 55°25' E 014°41'1515.6
2014-Jul-26 23:33N 55°12' E 014°24'1515.2
2014-Jul-26 22:34N 55°01' E 014°07'1515.1
2014-Jul-26 21:33N 54°56' E 013°42'1615.5
2014-Jul-26 20:33N 54°50' E 013°17'1615.6
2014-Jul-26 19:33N 54°46' E 012°50'1514.9
2014-Jul-26 18:33N 54°39' E 012°28'1414.0
2014-Jul-26 17:33N 54°27' E 012°14'1413.7
2014-Jul-26 16:33N 54°15' E 012°05'4 3.6
2014-Jul-26 15:22N 54°11' E 012°06'0 0.0
2014-Jul-26 14:28N 54°11' E 012°06'0 0.0
2014-Jul-26 13:31N 54°11' E 012°06'0 0.0
2014-Jul-26 12:31N 54°11' E 012°06'0 0.0
2014-Jul-26 11:28N 54°11' E 012°06'0 0.0
2014-Jul-26 10:25N 54°11' E 012°06'0 0.0
2014-Jul-26 09:31N 54°11' E 012°06'0 0.0
2014-Jul-26 08:31N 54°11' E 012°06'0 0.0
2014-Jul-26 07:31N 54°11' E 012°06'0 0.0
2014-Jul-26 06:33N 54°11' E 012°06'0 0.0
2014-Jul-26 05:33N 54°11' E 012°06'1 1.1
2014-Jul-26 04:33N 54°10' E 012°06'8 8.0
2014-Jul-26 03:33N 54°17' E 012°01'9 9.3
2014-Jul-26 02:33N 54°26' E 012°03'1414.1
2014-Jul-26 01:33N 54°38' E 012°17'1514.9
2014-Jul-26 00:33N 54°46' E 012°39'1515.2
2014-Jul-25 23:32N 54°52' E 013°04'1515.1
2014-Jul-25 22:33N 54°56' E 013°28'1515.2
2014-Jul-25 21:33N 55°02' E 013°52'1514.8
2014-Jul-25 20:33N 55°11' E 014°14'1515.4
2014-Jul-25 19:33N 55°22' E 014°31'1615.4
2014-Jul-25 18:33N 55°32' E 014°53'1515.4
2014-Jul-25 17:33N 55°40' E 015°16'1515.4
2014-Jul-25 16:33N 55°47' E 015°40'1615.6
2014-Jul-25 15:33N 55°55' E 016°04'1615.8
2014-Jul-25 14:33N 56°03' E 016°28'1515.2
2014-Jul-25 13:34N 56°14' E 016°48'1615.9
2014-Jul-25 12:33N 56°28' E 016°58'1615.9
2014-Jul-25 11:33N 56°43' E 017°08'1615.8
2014-Jul-25 10:33N 56°58' E 017°19'1616.0
2014-Jul-25 09:33N 57°13' E 017°30'1616.0
2014-Jul-25 08:33N 57°28' E 017°41'1616.1
2014-Jul-25 07:33N 57°42' E 017°56'1616.0
2014-Jul-25 06:33N 57°55' E 018°11'1616.2
2014-Jul-25 05:33N 58°09' E 018°26'1616.0
2014-Jul-25 04:33N 58°23' E 018°42'1616.3
2014-Jul-25 03:33N 58°37' E 018°58'1616.0
2014-Jul-25 02:33N 58°51' E 019°14'1616.0
2014-Jul-25 01:33N 59°05' E 019°30'1615.8
2014-Jul-25 00:33N 59°19' E 019°44'1515.4
2014-Jul-24 23:34N 59°32' E 019°57'1514.8
2014-Jul-24 22:33N 59°45' E 019°43'5210.5
2014-Jul-24 17:33N 59°20' E 018°13'3 2.5
2014-Jul-24 16:31N 59°21' E 018°08'0 0.0
2014-Jul-24 15:33N 59°21' E 018°08'0 0.0
2014-Jul-24 14:32N 59°21' E 018°08'0 0.0
2014-Jul-24 13:31N 59°21' E 018°08'0 0.0
2014-Jul-24 12:31N 59°21' E 018°08'0 0.0
2014-Jul-24 11:33N 59°21' E 018°08'0 0.0
2014-Jul-24 10:33N 59°21' E 018°08'0 0.0
2014-Jul-24 09:32N 59°21' E 018°08'0 0.0
2014-Jul-24 08:32N 59°21' E 018°08'1 0.9
2014-Jul-24 07:33N 59°20' E 018°09'9410.5
2014-Jul-23 22:33N 59°33' E 021°13'1515.5
2014-Jul-23 21:33N 59°30' E 021°43'4915.4
2014-Jul-23 18:23N 59°36' E 023°19'1516.1
2014-Jul-23 17:27N 59°41' E 023°47'4114.0
2014-Jul-23 14:30N 60°05' E 024°54'4 0.5
2014-Jul-23 07:16N 60°09' E 024°55'0 0.0
2014-Jul-23 06:15N 60°09' E 024°55'0 0.1
2014-Jul-23 05:33N 60°09' E 024°55'5 5.4
2014-Jul-23 04:33N 60°04' E 024°54'2612.8
2014-Jul-23 02:34N 59°55' E 025°42'1615.9
2014-Jul-23 01:33N 59°59' E 026°13'1615.6
2014-Jul-23 00:34N 60°01' E 026°44'1515.3
2014-Jul-22 23:33N 60°03' E 027°14'8712.4
2014-Jul-22 16:33N 59°57' E 030°09'1 0.2
2014-Jul-22 10:06N 59°57' E 030°12'0 0.0
2014-Jul-22 08:29N 59°57' E 030°12'0 0.0
2014-Jul-22 07:33N 59°57' E 030°12'0 0.0
2014-Jul-22 06:28N 59°57' E 030°12'0 0.0
2014-Jul-22 03:33N 59°57' E 030°11'7512.4
2014-Jul-21 21:33N 60°10' E 027°45'1514.7
2014-Jul-21 20:33N 60°03' E 027°19'414.9
2014-Jul-21 20:18N 60°01' E 027°13'1114.2
2014-Jul-21 19:33N 59°59' E 026°52'1615.1
2014-Jul-21 18:31N 59°57' E 026°21'  
Track history (hours):
 
Tides and Currents Weather Stations Pressure Air Temp Water Temp Dewpoint Dewpoint Depression Visibility Wind Speed Wind Dir Waves Ship Positions

Aidamar

Last reported at 2014-Jul-31 17:33 UTC. Time now 2014-Aug-01 05:46 UTC.
Position N 59°19' E 018°09'.

Length 253 m; draft 7.3 m.

Type: Passenger vessel. MMSI: 247312900.

Date/timePositionNaut miles runAvg speedWind from/ knotsBaromVisibWave heightAir tempDewpointWater temp
2014-Jul-31 17:33N 59°19' E 018°09'1 1.2
2014-Jul-31 16:30N 59°19' E 018°06'0 0.0
2014-Jul-31 15:33N 59°19' E 018°06'0 0.0
2014-Jul-31 14:32N 59°19' E 018°06'0 0.0
2014-Jul-31 13:29N 59°19' E 018°06'0 0.0
2014-Jul-31 12:17N 59°19' E 018°06'0 0.0
2014-Jul-31 11:23N 59°19' E 018°06'0 0.0
2014-Jul-31 10:33N 59°19' E 018°06'0 0.0
2014-Jul-31 09:33N 59°19' E 018°06'0 0.0
2014-Jul-31 08:29N 59°19' E 018°06'0 0.0
2014-Jul-31 07:33N 59°19' E 018°06'7 6.9
2014-Jul-31 06:33N 59°23' E 018°17'9011.1
2014-Jul-30 22:30N 59°33' E 021°13'1515.9
2014-Jul-30 21:33N 59°30' E 021°42'1615.5
2014-Jul-30 20:33N 59°29' E 022°13'1615.5
2014-Jul-30 19:31N 59°31' E 022°44'1515.6
2014-Jul-30 18:32N 59°36' E 023°13'1715.3
2014-Jul-30 17:24N 59°41' E 023°46'3415.3
2014-Jul-30 15:10N 59°57' E 024°46'912.9
2014-Jul-30 14:26N 60°05' E 024°54'4 1.1
2014-Jul-30 11:04N 60°09' E 024°55'0 0.0
2014-Jul-30 07:05N 60°09' E 024°55'0 0.0
2014-Jul-30 06:17N 60°09' E 024°55'0 0.5
2014-Jul-30 05:33N 60°09' E 024°55'6 6.2
2014-Jul-30 04:32N 60°02' E 024°54'5012.3
2014-Jul-30 00:29N 60°01' E 026°34'1715.1
2014-Jul-29 23:21N 60°01' E 027°08'8913.0
2014-Jul-29 16:34N 59°56' E 030°05'3 0.3
2014-Jul-29 06:26N 59°57' E 030°12'0 0.0
2014-Jul-29 05:26N 59°57' E 030°12'0 0.0
2014-Jul-29 03:28N 59°57' E 030°11'4711.4
2014-Jul-28 23:20N 60°02' E 028°38'1414.6
2014-Jul-28 22:21N 60°08' E 028°12'1315.5
2014-Jul-28 21:30N 60°10' E 027°46'1515.5
2014-Jul-28 20:34N 60°03' E 027°21'1514.8
2014-Jul-28 19:33N 59°59' E 026°52'1515.1
2014-Jul-28 18:32N 59°57' E 026°22'1515.6
2014-Jul-28 17:33N 59°52' E 025°53'1615.7
2014-Jul-28 16:34N 59°48' E 025°23'1615.8
2014-Jul-28 15:34N 59°43' E 024°53'16 1.6
2014-Jul-28 05:33N 59°27' E 024°46'7 6.6
2014-Jul-28 04:33N 59°30' E 024°34'1414.1
2014-Jul-28 03:32N 59°30' E 024°06'1515.7
2014-Jul-28 02:33N 59°30' E 023°35'1615.7
2014-Jul-28 01:33N 59°29' E 023°05'1615.8
2014-Jul-28 00:33N 59°24' E 022°35'2411.1
2014-Jul-27 22:23N 59°10' E 021°57'1314.4
2014-Jul-27 21:30N 59°01' E 021°39'1715.6
2014-Jul-27 20:23N 58°46' E 021°21'3216.0
2014-Jul-27 18:23N 58°20' E 020°47'9315.1
2014-Jul-27 12:12N 57°05' E 019°01'1015.0
2014-Jul-27 11:33N 56°58' E 018°50'1614.9
2014-Jul-27 10:30N 56°47' E 018°28'6515.1
2014-Jul-27 06:13N 56°07' E 016°56'4415.4
2014-Jul-27 03:23N 55°46' E 015°49'1815.5
2014-Jul-27 02:15N 55°37' E 015°21'1115.6
2014-Jul-27 01:33N 55°33' E 015°04'1615.4
2014-Jul-27 00:32N 55°25' E 014°41'1515.6
2014-Jul-26 23:33N 55°12' E 014°24'1515.2
2014-Jul-26 22:34N 55°01' E 014°07'1515.1
2014-Jul-26 21:33N 54°56' E 013°42'1615.5
2014-Jul-26 20:33N 54°50' E 013°17'1615.6
2014-Jul-26 19:33N 54°46' E 012°50'1514.9
2014-Jul-26 18:33N 54°39' E 012°28'1414.0
2014-Jul-26 17:33N 54°27' E 012°14'1413.7
2014-Jul-26 16:33N 54°15' E 012°05'4 3.6
2014-Jul-26 15:22N 54°11' E 012°06'0 0.0
2014-Jul-26 14:28N 54°11' E 012°06'0 0.0
2014-Jul-26 13:31N 54°11' E 012°06'0 0.0
2014-Jul-26 12:31N 54°11' E 012°06'0 0.0
2014-Jul-26 11:28N 54°11' E 012°06'0 0.0
2014-Jul-26 10:25N 54°11' E 012°06'0 0.0
2014-Jul-26 09:31N 54°11' E 012°06'0 0.0
2014-Jul-26 08:31N 54°11' E 012°06'0 0.0
2014-Jul-26 07:31N 54°11' E 012°06'0 0.0
2014-Jul-26 06:33N 54°11' E 012°06'0 0.0
2014-Jul-26 05:33N 54°11' E 012°06'1 1.1
2014-Jul-26 04:33N 54°10' E 012°06'8 8.0
2014-Jul-26 03:33N 54°17' E 012°01'9 9.3
2014-Jul-26 02:33N 54°26' E 012°03'1414.1
2014-Jul-26 01:33N 54°38' E 012°17'1514.9
2014-Jul-26 00:33N 54°46' E 012°39'1515.2
2014-Jul-25 23:32N 54°52' E 013°04'1515.1
2014-Jul-25 22:33N 54°56' E 013°28'1515.2
2014-Jul-25 21:33N 55°02' E 013°52'1514.8
2014-Jul-25 20:33N 55°11' E 014°14'1515.4
2014-Jul-25 19:33N 55°22' E 014°31'1615.4
2014-Jul-25 18:33N 55°32' E 014°53'1515.4
2014-Jul-25 17:33N 55°40' E 015°16'1515.4
2014-Jul-25 16:33N 55°47' E 015°40'1615.6
2014-Jul-25 15:33N 55°55' E 016°04'1615.8
2014-Jul-25 14:33N 56°03' E 016°28'1515.2
2014-Jul-25 13:34N 56°14' E 016°48'1615.9
2014-Jul-25 12:33N 56°28' E 016°58'1615.9
2014-Jul-25 11:33N 56°43' E 017°08'1615.8
2014-Jul-25 10:33N 56°58' E 017°19'1616.0
2014-Jul-25 09:33N 57°13' E 017°30'1616.0
2014-Jul-25 08:33N 57°28' E 017°41'1616.1
2014-Jul-25 07:33N 57°42' E 017°56'1616.0
2014-Jul-25 06:33N 57°55' E 018°11'1616.2
2014-Jul-25 05:33N 58°09' E 018°26'1616.0
2014-Jul-25 04:33N 58°23' E 018°42'1616.3
2014-Jul-25 03:33N 58°37' E 018°58'1616.0
2014-Jul-25 02:33N 58°51' E 019°14'1616.0
2014-Jul-25 01:33N 59°05' E 019°30'1615.8
2014-Jul-25 00:33N 59°19' E 019°44'1515.4
2014-Jul-24 23:34N 59°32' E 019°57'1514.8
2014-Jul-24 22:33N 59°45' E 019°43'5210.5
2014-Jul-24 17:33N 59°20' E 018°13'3 2.5
2014-Jul-24 16:31N 59°21' E 018°08'0 0.0
2014-Jul-24 15:33N 59°21' E 018°08'0 0.0
2014-Jul-24 14:32N 59°21' E 018°08'0 0.0
2014-Jul-24 13:31N 59°21' E 018°08'0 0.0
2014-Jul-24 12:31N 59°21' E 018°08'0 0.0
2014-Jul-24 11:33N 59°21' E 018°08'0 0.0
2014-Jul-24 10:33N 59°21' E 018°08'0 0.0
2014-Jul-24 09:32N 59°21' E 018°08'0 0.0
2014-Jul-24 08:32N 59°21' E 018°08'1 0.9
2014-Jul-24 07:33N 59°20' E 018°09'9410.5
2014-Jul-23 22:33N 59°33' E 021°13'1515.5
2014-Jul-23 21:33N 59°30' E 021°43'4915.4
2014-Jul-23 18:23N 59°36' E 023°19'1516.1
2014-Jul-23 17:27N 59°41' E 023°47'4114.0
2014-Jul-23 14:30N 60°05' E 024°54'4 0.5
2014-Jul-23 07:16N 60°09' E 024°55'0 0.0
2014-Jul-23 06:15N 60°09' E 024°55'0 0.1
2014-Jul-23 05:33N 60°09' E 024°55'5 5.4
2014-Jul-23 04:33N 60°04' E 024°54'2612.8
2014-Jul-23 02:34N 59°55' E 025°42'1615.9
2014-Jul-23 01:33N 59°59' E 026°13'1615.6
2014-Jul-23 00:34N 60°01' E 026°44'1515.3
2014-Jul-22 23:33N 60°03' E 027°14'8712.4
2014-Jul-22 16:33N 59°57' E 030°09'1 0.2
2014-Jul-22 10:06N 59°57' E 030°12'0 0.0
2014-Jul-22 08:29N 59°57' E 030°12'0 0.0
2014-Jul-22 07:33N 59°57' E 030°12'0 0.0
2014-Jul-22 06:28N 59°57' E 030°12'0 0.0
2014-Jul-22 03:33N 59°57' E 030°11'7512.4
2014-Jul-21 21:33N 60°10' E 027°45'1514.7
2014-Jul-21 20:33N 60°03' E 027°19'414.9
2014-Jul-21 20:18N 60°01' E 027°13'1114.2
2014-Jul-21 19:33N 59°59' E 026°52'1615.1
2014-Jul-21 18:31N 59°57' E 026°21'  

Dump ship's entire track history